This is the latest recevied weather packets stored in our database for station/object KF7BKV-1. If no packets are shown the sender has not sent any weather packets the latest 1 day(s).
| Time | Temp. | Humidity | Pressure | Rain* | Wind** | Luminosity | Snow |
|---|---|---|---|---|---|---|---|
| 1778055004 | 11.11° C | 41% | 1016.9 hPa | 0 mm | 4.02 m/s, 134° | - | - |
| 1778054823 | 11.11° C | 41% | 1016.9 hPa | 0 mm | 4.02 m/s, 134° | - | - |
| 1778054583 | 11.67° C | 41% | 1016.6 hPa | 0 mm | 3.13 m/s, 116° | - | - |
| 1778054404 | 11.67° C | 40% | 1016.7 hPa | 0 mm | 4.92 m/s, 127° | - | - |
| 1778054104 | 11.67° C | 39% | 1016.6 hPa | 0 mm | 6.71 m/s, 151° | - | - |
| 1778053923 | 11.67° C | 39% | 1016.6 hPa | 0 mm | 6.71 m/s, 151° | - | - |
| 1778053863 | 11.67° C | 39% | 1016.6 hPa | 0 mm | 6.71 m/s, 151° | - | - |
| 1778053624 | 11.67° C | 39% | 1016.6 hPa | 0 mm | 6.71 m/s, 95° | - | - |
| 1778053143 | 12.22° C | 39% | 1016.2 hPa | 0 mm | 8.49 m/s, 128° | - | - |
| 1778053084 | 12.22° C | 39% | 1016.2 hPa | 0 mm | 8.49 m/s, 128° | - | - |
| 1778052843 | 12.22° C | 38% | 1016.1 hPa | 0 mm | 4.02 m/s, 135° | - | - |
| 1778052783 | 12.22° C | 38% | 1016.1 hPa | 0 mm | 4.02 m/s, 135° | - | - |
| 1778052723 | 12.22° C | 38% | 1016.1 hPa | 0 mm | 4.02 m/s, 135° | - | - |
| 1778052483 | 12.22° C | 37% | 1015.6 hPa | 0 mm | 6.71 m/s, 124° | - | - |
| 1778051883 | 12.78° C | 36% | 1015.7 hPa | 0 mm | 5.36 m/s, 84° | - | - |
| 1778051523 | 13.33° C | 36% | 1015.4 hPa | 0 mm | 5.36 m/s, 83° | - | - |
| 1778050743 | 14.44° C | 34% | 1015.3 hPa | 0 mm | 5.81 m/s, 104° | - | - |
| 1778050143 | 15° C | 36% | 1014.5 hPa | 0 mm | 5.36 m/s, 121° | - | - |
| 1778050083 | 15° C | 36% | 1014.5 hPa | 0 mm | 5.36 m/s, 121° | - | - |
| 1778049183 | 14.44° C | 43% | 1013.6 hPa | 0 mm | 1.34 m/s, 316° | - | - |
| 1778049063 | 14.44° C | 43% | 1013.6 hPa | 0 mm | 1.34 m/s, 316° | - | - |
| 1778048943 | 14.44° C | 43% | 1013.4 hPa | 0 mm | 1.34 m/s, 317° | - | - |
| 1778048643 | 14.44° C | 42% | 1013.3 hPa | 0 mm | 1.34 m/s, 319° | - | - |
| 1778048584 | 14.44° C | 42% | 1013.3 hPa | 0 mm | 1.34 m/s, 319° | - | - |
| 1778048404 | 15° C | 41% | 1013.4 hPa | 0 mm | 1.79 m/s, 299° | - | - |
* Rain latest hour (hover to see other rain measurements)
** Current wind speed in m/s (hover to see current wind gust speed)